Time;durP1;ratioP1;P1;durP2;ratioP2;P2;SDS_P1;SDS_P2;PMS_P1;PMS_P2;Temp;Humidity;BMP_temperature;BMP_pressure;BME280_temperature;BME280_humidity;BME280_pressure;Samples;Min_cycle;Max_cycle;Signal;HPM_P1;HPM_P2
2022/06/18 00:01:35;;;;;;;3.17;2.75;;;22.70;56.30;;;;;;5105857;28;20501;-65
2022/06/18 00:04:12;;;;;;;3.30;3.00;;;22.70;56.30;;;;;;5106915;28;20131;-66
2022/06/18 00:06:55;;;;;;;2.75;2.40;;;22.70;56.40;;;;;;5105211;28;20075;-66
2022/06/18 00:09:24;;;;;;;3.45;2.90;;;22.70;56.50;;;;;;5088711;28;20158;-63
2022/06/18 00:14:41;;;;;;;3.95;2.80;;;22.70;56.40;;;;;;5106011;28;20143;-65
2022/06/18 00:17:16;;;;;;;4.25;3.13;;;22.70;56.50;;;;;;5106420;28;20122;-66
2022/06/18 00:19:42;;;;;;;3.80;2.75;;;22.60;56.50;;;;;;5086189;28;20384;-65
2022/06/18 00:22:13;;;;;;;3.45;2.70;;;22.60;56.50;;;;;;5106062;28;20108;-66
2022/06/18 00:24:38;;;;;;;2.92;2.72;;;22.60;56.50;;;;;;5104705;28;20514;-65
2022/06/18 00:27:04;;;;;;;3.25;2.80;;;22.60;56.50;;;;;;5105700;28;20090;-65
2022/06/18 00:29:30;;;;;;;3.40;2.95;;;22.60;56.60;;;;;;5097407;28;20083;-66
2022/06/18 00:31:55;;;;;;;3.40;3.10;;;22.60;56.60;;;;;;5087068;28;20138;-66
2022/06/18 00:34:21;;;;;;;3.05;2.80;;;22.60;56.50;;;;;;5105838;28;20035;-66
2022/06/18 00:36:46;;;;;;;3.22;2.70;;;22.60;56.50;;;;;;5104970;28;20051;-66
2022/06/18 00:39:15;;;;;;;3.80;2.83;;;22.60;56.60;;;;;;5104965;28;20451;-66
2022/06/18 00:41:44;;;;;;;2.97;2.78;;;22.60;56.60;;;;;;5104465;28;20051;-66
2022/06/18 00:44:25;;;;;;;3.42;2.72;;;22.60;56.60;;;;;;5105757;28;20092;-67
2022/06/18 00:47:00;;;;;;;3.65;2.72;;;22.60;56.60;;;;;;5105271;28;20100;-66
2022/06/18 00:49:40;;;;;;;4.25;3.00;;;22.60;56.60;;;;;;5104311;28;20494;-66
2022/06/18 00:52:39;;;;;;;5.32;3.00;;;22.60;56.60;;;;;;5106267;28;20051;-66
2022/06/18 00:55:26;;;;;;;3.15;2.67;;;22.60;56.60;;;;;;5098774;28;20623;-65
2022/06/18 00:57:57;;;;;;;3.20;2.90;;;22.60;56.70;;;;;;5104883;28;20553;-66
2022/06/18 01:00:36;;;;;;;4.38;2.90;;;22.60;56.70;;;;;;5104987;28;20357;-66
2022/06/18 01:03:02;;;;;;;3.78;2.75;;;22.60;56.60;;;;;;5104476;28;20043;-66
2022/06/18 01:05:35;;;;;;;3.55;2.85;;;22.60;56.70;;;;;;5105415;28;20040;-65
2022/06/18 01:08:10;;;;;;;3.08;2.80;;;22.60;56.70;;;;;;5104323;28;20044;-66
2022/06/18 01:10:41;;;;;;;4.28;2.88;;;22.60;56.70;;;;;;5099161;28;20044;-65
2022/06/18 01:13:10;;;;;;;3.33;2.97;;;22.60;56.70;;;;;;5096949;28;20167;-66
2022/06/18 01:15:37;;;;;;;3.33;3.03;;;22.60;56.70;;;;;;5105117;28;20097;-66
2022/06/18 01:18:04;;;;;;;3.53;2.90;;;22.60;56.80;;;;;;5106170;28;20117;-65
2022/06/18 01:20:33;;;;;;;3.20;2.90;;;22.60;56.80;;;;;;5104405;28;20036;-65
2022/06/18 01:23:06;;;;;;;3.15;2.60;;;22.60;56.80;;;;;;5105925;28;20555;-65
2022/06/18 01:25:32;;;;;;;3.15;2.85;;;22.60;56.80;;;;;;5104445;28;20051;-66
2022/06/18 01:27:58;;;;;;;3.00;2.70;;;22.50;56.80;;;;;;5095402;28;20055;-65
2022/06/18 01:30:30;;;;;;;3.33;3.03;;;22.60;56.80;;;;;;5087768;28;20564;-65
2022/06/18 01:32:56;;;;;;;3.30;3.00;;;22.60;57.60;;;;;;5087286;28;20068;-65
2022/06/18 01:35:23;;;;;;;3.72;3.00;;;22.60;56.80;;;;;;5101540;28;20070;-65
2022/06/18 01:37:49;;;;;;;3.10;2.75;;;22.60;56.80;;;;;;5089721;28;20531;-65
2022/06/18 01:40:25;;;;;;;3.75;2.78;;;22.60;56.80;;;;;;5104773;28;20352;-65
2022/06/18 01:42:55;;;;;;;3.20;2.90;;;22.50;56.80;;;;;;5104324;28;20059;-65
2022/06/18 01:45:25;;;;;;;4.97;2.95;;;22.50;56.80;;;;;;5097703;28;20048;-65
2022/06/18 01:48:17;;;;;;;3.40;3.10;;;22.60;56.80;;;;;;5099182;28;20191;-65
2022/06/18 01:50:54;;;;;;;3.03;2.75;;;22.60;56.80;;;;;;5103408;28;20389;-65
2022/06/18 01:53:53;;;;;;;3.70;2.85;;;22.50;56.80;;;;;;5104721;28;20130;-65
2022/06/18 01:56:27;;;;;;;3.20;2.90;;;22.50;56.80;;;;;;5088919;28;20047;-67
2022/06/18 01:59:01;;;;;;;3.30;3.00;;;22.50;56.70;;;;;;5094532;28;20785;-65
2022/06/18 02:01:32;;;;;;;3.40;2.78;;;22.50;56.80;;;;;;5090402;28;20550;-65
2022/06/18 02:04:00;;;;;;;3.08;2.78;;;22.50;56.80;;;;;;5107944;28;20070;-65
2022/06/18 02:06:28;;;;;;;3.38;3.08;;;22.50;56.80;;;;;;5109763;28;20043;-64
2022/06/18 02:08:54;;;;;;;4.78;2.80;;;22.50;56.80;;;;;;5108148;28;20412;-65
2022/06/18 02:11:21;;;;;;;2.80;2.60;;;22.50;56.90;;;;;;5108994;28;20126;-66
2022/06/18 02:13:55;;;;;;;3.17;2.85;;;22.50;56.90;;;;;;5109103;28;20430;-66
2022/06/18 02:16:27;;;;;;;3.17;2.83;;;22.50;56.80;;;;;;5090427;28;20058;-64
2022/06/18 02:18:54;;;;;;;3.20;2.90;;;22.50;56.80;;;;;;5108729;28;20048;-66
2022/06/18 02:21:23;;;;;;;4.43;3.00;;;22.50;56.90;;;;;;5106830;28;20032;-64
2022/06/18 02:23:54;;;;;;;3.30;3.00;;;22.50;56.90;;;;;;5108420;28;20430;-65
2022/06/18 02:26:21;;;;;;;3.83;2.97;;;22.50;56.80;;;;;;5107999;28;20047;-66
2022/06/18 02:28:47;;;;;;;3.20;2.55;;;22.50;56.90;;;;;;5107402;28;20422;-66
2022/06/18 02:31:19;;;;;;;3.58;3.22;;;22.50;56.90;;;;;;5108509;28;20050;-66
2022/06/18 02:34:00;;;;;;;3.70;3.00;;;22.50;56.90;;;;;;5107462;28;20032;-65
2022/06/18 02:36:31;;;;;;;3.38;2.80;;;22.50;56.90;;;;;;5101535;28;20040;-65
2022/06/18 02:39:01;;;;;;;4.03;2.65;;;22.40;56.90;;;;;;5100727;28;20039;-65
2022/06/18 02:41:27;;;;;;;3.83;3.00;;;22.40;56.90;;;;;;5107952;28;20157;-66
2022/06/18 02:43:53;;;;;;;2.83;2.60;;;22.50;57.00;;;;;;5089207;28;20126;-66
2022/06/18 02:46:19;;;;;;;3.22;2.92;;;22.50;57.00;;;;;;5107709;28;20035;-64
2022/06/18 02:48:45;;;;;;;3.15;2.80;;;22.50;57.00;;;;;;5108802;28;20055;-64
2022/06/18 02:51:13;;;;;;;3.05;2.70;;;22.40;57.10;;;;;;5106979;28;20119;-66
2022/06/18 02:53:39;;;;;;;3.92;3.13;;;22.40;57.00;;;;;;5089585;28;20035;-66
2022/06/18 02:56:07;;;;;;;3.78;3.10;;;22.40;57.10;;;;;;5105913;28;20422;-66
2022/06/18 02:58:36;;;;;;;3.17;2.92;;;22.40;57.10;;;;;;5089237;28;20058;-66
2022/06/18 03:01:05;;;;;;;3.42;3.13;;;22.40;57.10;;;;;;5107107;28;20151;-66
2022/06/18 03:03:35;;;;;;;3.15;2.83;;;22.40;57.10;;;;;;5107327;28;20027;-65
2022/06/18 03:06:01;;;;;;;3.33;2.90;;;22.50;57.20;;;;;;5108132;28;20047;-63
2022/06/18 03:08:29;;;;;;;3.20;2.90;;;22.40;57.20;;;;;;5105432;28;20119;-64
2022/06/18 03:13:39;;;;;;;3.65;3.13;;;22.40;57.20;;;;;;5106708;28;20154;-64
2022/06/18 03:16:08;;;;;;;3.35;2.90;;;22.40;57.30;;;;;;5107976;28;20127;-65
2022/06/18 03:18:35;;;;;;;3.33;2.90;;;22.40;57.20;;;;;;5107421;28;20071;-65
2022/06/18 03:21:15;;;;;;;3.35;2.80;;;22.40;57.20;;;;;;5087439;28;20048;-65
2022/06/18 03:23:42;;;;;;;5.22;3.00;;;22.40;57.30;;;;;;5107400;28;20035;-65
2022/06/18 03:26:08;;;;;;;3.72;2.80;;;22.40;57.20;;;;;;5105921;28;20048;-64
2022/06/18 03:28:33;;;;;;;3.65;2.97;;;22.40;57.30;;;;;;5107138;28;20062;-64
2022/06/18 03:30:59;;;;;;;4.03;3.20;;;22.40;57.30;;;;;;5107457;28;20941;-66
2022/06/18 03:33:25;;;;;;;3.13;2.90;;;22.40;57.30;;;;;;5107466;28;20192;-64
2022/06/18 03:35:52;;;;;;;3.50;3.20;;;22.40;57.30;;;;;;5087133;28;20070;-65
2022/06/18 03:38:18;;;;;;;3.80;3.30;;;22.40;57.30;;;;;;5094500;28;20063;-66
2022/06/18 03:40:45;;;;;;;4.45;3.10;;;22.40;57.30;;;;;;5107002;28;20185;-65
2022/06/18 03:43:14;;;;;;;3.85;3.30;;;22.40;57.40;;;;;;5106266;28;20078;-66
2022/06/18 03:45:43;;;;;;;3.22;2.95;;;22.40;57.30;;;;;;5108207;28;20074;-66
2022/06/18 03:48:20;;;;;;;3.28;2.92;;;22.40;57.30;;;;;;5106065;28;20093;-66
2022/06/18 03:50:45;;;;;;;3.75;3.20;;;22.40;57.40;;;;;;5087415;28;20055;-65
2022/06/18 03:53:12;;;;;;;4.60;3.13;;;22.40;57.40;;;;;;5106966;28;20032;-66
2022/06/18 03:55:38;;;;;;;3.22;3.00;;;22.40;57.40;;;;;;5105222;28;20547;-65
2022/06/18 03:58:04;;;;;;;3.25;2.95;;;22.40;57.40;;;;;;5106309;28;20264;-66
2022/06/18 04:00:31;;;;;;;3.80;3.30;;;22.40;57.40;;;;;;5104957;28;20047;-66
2022/06/18 04:02:56;;;;;;;3.10;2.83;;;22.40;57.50;;;;;;5106952;28;20035;-66
2022/06/18 04:05:22;;;;;;;3.50;3.20;;;22.40;57.50;;;;;;5105830;28;20499;-66
2022/06/18 04:07:47;;;;;;;4.97;3.25;;;22.30;57.40;;;;;;5088186;28;20052;-65
2022/06/18 04:10:19;;;;;;;3.55;3.15;;;22.40;57.50;;;;;;5087009;28;20040;-64
2022/06/18 04:12:46;;;;;;;3.97;3.10;;;22.40;57.60;;;;;;5105406;28;20168;-65
2022/06/18 04:15:12;;;;;;;3.45;3.15;;;22.40;57.50;;;;;;5107165;28;20032;-65
2022/06/18 04:17:38;;;;;;;4.45;3.08;;;22.40;57.60;;;;;;5105121;28;20051;-66
2022/06/18 04:20:05;;;;;;;4.07;3.10;;;22.30;57.50;;;;;;5105145;28;20194;-64
2022/06/18 04:22:30;;;;;;;4.40;3.20;;;22.40;57.50;;;;;;5104447;28;20490;-64
2022/06/18 04:24:56;;;;;;;4.10;3.10;;;22.40;57.60;;;;;;5106051;28;20113;-65
2022/06/18 04:27:21;;;;;;;3.83;3.20;;;22.30;57.50;;;;;;5105087;28;20047;-66
2022/06/18 04:29:47;;;;;;;3.78;3.40;;;22.40;57.60;;;;;;5120823;27;20495;-66
2022/06/18 04:32:12;;;;;;;4.25;3.10;;;22.40;57.60;;;;;;5106043;28;20038;-64
2022/06/18 04:34:38;;;;;;;3.78;3.10;;;22.40;57.60;;;;;;5104900;28;20111;-65
2022/06/18 04:37:04;;;;;;;3.53;3.22;;;22.40;57.60;;;;;;5094166;28;20047;-65
2022/06/18 04:39:30;;;;;;;3.88;3.28;;;22.40;57.60;;;;;;5082878;28;20187;-65
2022/06/18 04:41:55;;;;;;;3.33;3.00;;;22.40;57.70;;;;;;5105397;28;20097;-65
2022/06/18 04:44:21;;;;;;;3.60;3.22;;;22.40;57.70;;;;;;5105313;28;20529;-65
2022/06/18 04:46:46;;;;;;;4.60;3.30;;;22.40;57.70;;;;;;5106625;28;21249;-65
2022/06/18 04:49:12;;;;;;;3.40;3.10;;;22.40;57.70;;;;;;5106179;28;20055;-65
2022/06/18 04:51:38;;;;;;;5.90;3.22;;;22.40;57.70;;;;;;5105358;28;20119;-65
2022/06/18 04:54:03;;;;;;;4.18;3.33;;;22.40;57.70;;;;;;5105971;28;20077;-65
2022/06/18 04:56:30;;;;;;;4.22;3.53;;;22.40;57.70;;;;;;5105060;28;20529;-65
2022/06/18 04:58:55;;;;;;;4.45;3.20;;;22.40;57.80;;;;;;5105882;28;20059;-65
2022/06/18 05:01:28;;;;;;;4.25;3.53;;;22.40;57.80;;;;;;5104812;28;21483;-65
2022/06/18 05:03:54;;;;;;;4.47;3.40;;;22.40;57.80;;;;;;5106062;28;20169;-65
2022/06/18 05:06:19;;;;;;;3.50;3.20;;;22.40;57.80;;;;;;5105441;28;20118;-65
2022/06/18 05:08:45;;;;;;;3.95;3.35;;;22.40;57.70;;;;;;5104515;28;20050;-64
2022/06/18 05:11:10;;;;;;;4.45;3.17;;;22.50;57.80;;;;;;5086263;28;20074;-65
2022/06/18 05:13:36;;;;;;;4.93;3.35;;;22.50;57.80;;;;;;5103797;28;20489;-65
2022/06/18 05:16:02;;;;;;;5.43;3.40;;;22.50;57.80;;;;;;5105721;28;20044;-65
2022/06/18 05:18:31;;;;;;;4.45;3.50;;;22.50;57.80;;;;;;5104037;28;20052;-64
2022/06/18 05:20:57;;;;;;;4.25;3.67;;;22.50;57.80;;;;;;5104698;28;20071;-65
2022/06/18 05:23:22;;;;;;;3.35;3.05;;;22.50;57.80;;;;;;5105035;28;20127;-65
2022/06/18 05:25:54;;;;;;;4.70;3.50;;;22.50;57.90;;;;;;5105191;28;20047;-64
2022/06/18 05:28:20;;;;;;;4.13;3.30;;;22.50;57.80;;;;;;5104920;28;20046;-65
2022/06/18 05:30:45;;;;;;;3.55;3.25;;;22.50;57.90;;;;;;5103535;28;20395;-65
2022/06/18 05:33:11;;;;;;;4.35;3.67;;;22.50;57.90;;;;;;5104787;28;20067;-64
2022/06/18 05:35:38;;;;;;;4.78;3.40;;;22.50;57.90;;;;;;5103698;28;20126;-65
2022/06/18 05:38:04;;;;;;;4.93;3.40;;;22.50;57.90;;;;;;5105300;28;20049;-64
2022/06/18 05:40:30;;;;;;;4.30;3.33;;;22.60;58.00;;;;;;5102950;28;20052;-65
2022/06/18 05:42:56;;;;;;;4.43;3.28;;;22.60;58.00;;;;;;5104221;28;20069;-65
2022/06/18 05:45:22;;;;;;;4.22;3.38;;;22.60;58.00;;;;;;5120421;27;20051;-64
2022/06/18 05:47:48;;;;;;;5.10;3.60;;;22.60;58.10;;;;;;5104313;28;20043;-65
2022/06/18 05:50:17;;;;;;;5.43;3.17;;;22.60;58.10;;;;;;5105155;28;20553;-65
2022/06/18 05:52:42;;;;;;;;;;;22.60;58.10;;;;;;5085745;28;20126;-65
2022/06/18 05:55:08;;;;;;;5.00;3.55;;;22.60;58.20;;;;;;5104644;28;20345;-65
2022/06/18 05:57:34;;;;;;;4.07;3.60;;;22.70;58.20;;;;;;5100337;28;20040;-65
2022/06/18 06:00:07;;;;;;;5.68;3.50;;;22.60;58.20;;;;;;5086891;28;20059;-66
2022/06/18 06:02:32;;;;;;;5.45;3.28;;;22.70;58.30;;;;;;5104421;28;20454;-65
2022/06/18 06:04:58;;;;;;;3.88;3.50;;;22.70;58.40;;;;;;5119804;28;20075;-66
2022/06/18 06:07:24;;;;;;;5.57;3.13;;;22.70;58.40;;;;;;5105348;28;20043;-66
2022/06/18 06:12:37;;;;;;;4.22;3.35;;;22.80;58.50;;;;;;5104445;28;20075;-65
2022/06/18 06:15:03;;;;;;;4.65;3.33;;;22.90;58.60;;;;;;5103657;28;20126;-67
2022/06/18 06:17:29;;;;;;;4.57;3.50;;;22.80;58.60;;;;;;5105008;28;20039;-66
2022/06/18 06:20:08;;;;;;;3.78;3.40;;;22.90;58.60;;;;;;5103447;28;20036;-66
2022/06/18 06:22:36;;;;;;;4.03;3.20;;;22.90;58.70;;;;;;5103313;28;20062;-64
2022/06/18 06:25:03;;;;;;;3.75;3.30;;;23.00;58.70;;;;;;5104063;28;20051;-64
2022/06/18 06:27:28;;;;;;;4.85;3.15;;;23.00;58.70;;;;;;5102806;28;20042;-64
2022/06/18 06:29:54;;;;;;;5.70;3.40;;;23.00;58.70;;;;;;5085571;28;20111;-63
2022/06/18 06:32:19;;;;;;;5.53;3.60;;;23.00;59.10;;;;;;5102871;28;20148;-65
2022/06/18 06:34:45;;;;;;;3.83;3.10;;;23.10;58.70;;;;;;5104172;28;20490;-64
2022/06/18 06:37:10;;;;;;;5.05;3.10;;;23.10;59.50;;;;;;5091189;28;20517;-64
2022/06/18 06:39:36;;;;;;;8.45;3.53;;;23.10;58.70;;;;;;5102282;28;20071;-64
2022/06/18 06:42:02;;;;;;;3.63;2.90;;;23.10;58.70;;;;;;5104072;28;20553;-63
2022/06/18 06:44:28;;;;;;;5.55;3.17;;;23.20;58.80;;;;;;5105226;28;20034;-65
2022/06/18 06:46:54;;;;;;;5.20;3.63;;;23.20;58.70;;;;;;5109161;28;20050;-64
2022/06/18 06:49:20;;;;;;;7.28;3.65;;;23.30;58.80;;;;;;5106887;28;20066;-63
2022/06/18 06:51:46;;;;;;;5.22;3.50;;;23.30;58.70;;;;;;5107981;28;20111;-64
2022/06/18 06:54:11;;;;;;;6.22;3.50;;;23.30;58.60;;;;;;5106537;28;20044;-64
2022/06/18 06:59:21;;;;;;;4.38;3.17;;;23.30;58.40;;;;;;5107304;28;20235;-65
2022/06/18 07:01:47;;;;;;;6.85;3.08;;;23.40;58.40;;;;;;5106292;28;20486;-64
2022/06/18 07:04:14;;;;;;;5.38;3.30;;;23.40;58.40;;;;;;5108215;28;20493;-63
2022/06/18 07:06:40;;;;;;;5.38;3.30;;;23.40;58.40;;;;;;5106183;28;20063;-64
2022/06/18 07:09:07;;;;;;;4.00;3.17;;;23.40;58.40;;;;;;5088528;28;20047;-64
2022/06/18 07:11:33;;;;;;;5.00;3.25;;;23.40;58.40;;;;;;5106472;28;20047;-65
2022/06/18 07:14:00;;;;;;;3.97;3.20;;;23.40;58.40;;;;;;5106874;28;20509;-64
2022/06/18 07:16:26;;;;;;;3.72;3.13;;;23.40;58.40;;;;;;5107624;28;20484;-64
2022/06/18 07:18:53;;;;;;;4.63;3.30;;;23.40;58.30;;;;;;5106156;28;20474;-64
2022/06/18 07:21:21;;;;;;;3.78;3.00;;;23.40;58.30;;;;;;5106680;28;20047;-64
2022/06/18 07:23:47;;;;;;;4.00;3.38;;;23.40;58.30;;;;;;5105947;28;20040;-64
2022/06/18 07:26:17;;;;;;;5.22;3.20;;;23.40;58.30;;;;;;5107113;28;20040;-64
2022/06/18 07:28:43;;;;;;;3.80;3.03;;;23.40;58.30;;;;;;5105584;28;20123;-64
2022/06/18 07:31:15;;;;;;;3.80;3.40;;;23.40;58.60;;;;;;5106351;28;20104;-64
2022/06/18 07:33:43;;;;;;;4.68;3.10;;;23.40;58.20;;;;;;5107254;28;20486;-64
2022/06/18 07:36:09;;;;;;;4.25;2.85;;;23.40;58.30;;;;;;5101950;28;20058;-64
2022/06/18 07:38:34;;;;;;;3.28;2.97;;;23.40;58.20;;;;;;5097476;28;20119;-64
2022/06/18 07:41:00;;;;;;;4.65;3.00;;;23.50;58.30;;;;;;5086061;28;20402;-65
2022/06/18 07:43:52;;;;;;;4.03;3.30;;;23.50;58.30;;;;;;5106703;28;20134;-64
2022/06/18 07:46:17;;;;;;;5.43;3.05;;;23.50;58.30;;;;;;5106868;28;20036;-66
2022/06/18 07:48:43;;;;;;;4.82;2.97;;;23.50;58.30;;;;;;5106319;28;20019;-65
2022/06/18 07:51:10;;;;;;;4.03;2.90;;;23.50;58.30;;;;;;5106045;28;20054;-65
2022/06/18 07:53:36;;;;;;;3.17;2.80;;;23.50;58.30;;;;;;5105922;28;20062;-63
2022/06/18 07:56:02;;;;;;;4.50;3.03;;;23.50;58.30;;;;;;5102283;28;20051;-64
2022/06/18 07:58:28;;;;;;;3.88;2.92;;;23.50;58.20;;;;;;5090915;28;20047;-64
2022/06/18 08:00:55;;;;;;;5.25;3.00;;;23.50;58.30;;;;;;5106028;28;20028;-64
2022/06/18 08:03:21;;;;;;;2.95;2.65;;;23.50;58.20;;;;;;5106013;28;20031;-65
2022/06/18 08:05:47;;;;;;;4.25;3.08;;;23.60;58.30;;;;;;5106103;28;20085;-64
2022/06/18 08:08:14;;;;;;;4.13;3.00;;;23.60;58.20;;;;;;5106401;28;20543;-64
2022/06/18 08:10:41;;;;;;;3.05;2.75;;;23.60;58.30;;;;;;5104741;28;20044;-65
2022/06/18 08:13:08;;;;;;;3.97;2.90;;;23.50;58.20;;;;;;5106697;28;20090;-65
2022/06/18 08:15:33;;;;;;;5.18;3.30;;;23.60;58.30;;;;;;5105252;28;20093;-65
2022/06/18 08:17:59;;;;;;;4.28;2.70;;;23.60;58.20;;;;;;5088962;28;20067;-63
2022/06/18 08:20:26;;;;;;;3.75;3.05;;;23.60;58.20;;;;;;5104438;28;20043;-65
2022/06/18 08:22:55;;;;;;;3.95;2.90;;;23.60;58.20;;;;;;5105853;28;20043;-66
2022/06/18 08:25:23;;;;;;;3.95;3.33;;;23.60;59.00;;;;;;5105447;28;20065;-65
2022/06/18 08:27:50;;;;;;;3.60;2.90;;;23.70;58.30;;;;;;5105119;28;20130;-64
2022/06/18 08:30:17;;;;;;;3.50;3.20;;;23.70;58.30;;;;;;5102215;28;20562;-65
2022/06/18 08:32:44;;;;;;;3.80;2.67;;;23.70;59.00;;;;;;5105687;28;20040;-64
2022/06/18 08:35:10;;;;;;;5.95;3.08;;;23.70;58.30;;;;;;5106767;28;20039;-64
2022/06/18 08:37:38;;;;;;;5.38;3.42;;;23.70;58.20;;;;;;5086591;28;20097;-65
2022/06/18 08:40:34;;;;;;;3.67;3.05;;;23.70;58.20;;;;;;5104864;28;20090;-63
2022/06/18 08:43:14;;;;;;;3.83;2.90;;;23.70;58.20;;;;;;5104633;28;20082;-65
2022/06/18 08:45:47;;;;;;;4.88;3.13;;;23.70;58.20;;;;;;5052231;28;20109;-64
2022/06/18 08:48:44;;;;;;;3.53;2.90;;;23.70;58.20;;;;;;5105508;28;20577;-64
2022/06/18 08:51:23;;;;;;;4.47;2.67;;;23.70;58.10;;;;;;5104380;28;20040;-64
2022/06/18 08:54:12;;;;;;;2.88;2.67;;;23.70;58.20;;;;;;5104929;28;20051;-63
2022/06/18 08:56:53;;;;;;;5.68;2.90;;;23.80;58.20;;;;;;5105551;28;20047;-65
2022/06/18 08:59:26;;;;;;;3.38;2.78;;;23.80;58.20;;;;;;5104124;28;20047;-65
2022/06/18 09:02:18;;;;;;;4.10;2.90;;;23.80;58.20;;;;;;5105407;28;20067;-65
2022/06/18 09:04:57;;;;;;;2.97;2.63;;;23.80;58.10;;;;;;5105286;28;20047;-64
2022/06/18 09:07:36;;;;;;;3.20;2.65;;;23.80;58.20;;;;;;5085149;28;20047;-65
2022/06/18 09:10:26;;;;;;;3.58;2.88;;;23.80;58.20;;;;;;5104249;28;20032;-64
2022/06/18 09:12:59;;;;;;;3.67;2.70;;;23.90;58.20;;;;;;5104675;28;20130;-64
2022/06/18 09:15:29;;;;;;;4.53;2.90;;;23.90;58.20;;;;;;5104834;28;20045;-64
2022/06/18 09:18:05;;;;;;;3.83;2.60;;;23.90;58.20;;;;;;5105466;28;20591;-65
2022/06/18 09:20:43;;;;;;;3.53;2.60;;;23.90;58.20;;;;;;5103111;28;20139;-64
2022/06/18 09:23:21;;;;;;;5.10;2.85;;;23.90;58.20;;;;;;5105151;28;20048;-65
2022/06/18 09:25:50;;;;;;;3.20;2.55;;;23.90;58.20;;;;;;5090805;28;20036;-66
2022/06/18 09:29:01;;;;;;;5.00;2.50;;;23.90;58.20;;;;;;5103380;28;20503;-66
2022/06/18 09:31:34;;;;;;;3.35;2.35;;;23.90;58.10;;;;;;5096119;28;20490;-64
2022/06/18 09:34:08;;;;;;;4.15;2.60;;;23.90;58.20;;;;;;5104097;28;20062;-66
2022/06/18 09:36:40;;;;;;;2.83;2.50;;;23.90;58.20;;;;;;5097104;28;20437;-65
2022/06/18 09:39:26;;;;;;;3.10;2.40;;;23.90;58.20;;;;;;5099272;28;20043;-63
2022/06/18 09:42:17;;;;;;;3.03;2.40;;;23.90;58.10;;;;;;5103447;28;20063;-64
2022/06/18 09:44:49;;;;;;;2.85;2.63;;;23.90;58.20;;;;;;5078252;28;20051;-64
2022/06/18 09:47:35;;;;;;;3.70;2.60;;;23.90;58.20;;;;;;5104741;28;20398;-65
2022/06/18 09:50:02;;;;;;;3.65;2.45;;;24.00;58.10;;;;;;5103274;28;20618;-65
2022/06/18 09:52:33;;;;;;;2.95;2.60;;;24.00;58.20;;;;;;5105018;28;20135;-64
2022/06/18 09:55:22;;;;;;;4.40;2.40;;;24.00;58.10;;;;;;5103339;28;20099;-64
2022/06/18 09:57:54;;;;;;;4.20;2.63;;;24.00;58.10;;;;;;5103593;28;20046;-64
2022/06/18 10:00:24;;;;;;;3.25;2.35;;;24.00;58.90;;;;;;5103835;28;20135;-64
2022/06/18 10:02:59;;;;;;;2.92;2.10;;;24.00;58.10;;;;;;5104219;28;20405;-64
2022/06/18 10:08:17;;;;;;;2.90;2.60;;;24.00;58.10;;;;;;5103296;28;20068;-64
2022/06/18 10:10:51;;;;;;;3.45;2.60;;;24.00;58.10;;;;;;5103458;28;20058;-64
2022/06/18 10:13:23;;;;;;;3.10;2.33;;;24.00;58.10;;;;;;5104352;28;20118;-64
2022/06/18 10:15:49;;;;;;;3.05;2.38;;;24.00;58.10;;;;;;5086395;28;20051;-64
2022/06/18 10:18:27;;;;;;;4.22;2.60;;;24.00;58.90;;;;;;5106656;28;20505;-64
2022/06/18 10:21:14;;;;;;;3.33;2.30;;;24.00;58.10;;;;;;5088632;28;20055;-64
2022/06/18 10:24:07;;;;;;;3.17;2.50;;;24.10;58.10;;;;;;5108477;28;20041;-64
2022/06/18 10:26:44;;;;;;;3.22;2.47;;;24.00;58.00;;;;;;5108671;28;20563;-64
2022/06/18 10:29:33;;;;;;;3.78;2.40;;;24.10;58.10;;;;;;5106472;28;20043;-65
2022/06/18 10:32:19;;;;;;;2.80;2.47;;;24.00;58.10;;;;;;5108006;28;20536;-64
2022/06/18 10:35:19;;;;;;;2.78;2.58;;;24.00;58.10;;;;;;5108384;28;20092;-64
2022/06/18 10:38:05;;;;;;;3.28;2.40;;;24.10;58.00;;;;;;5090081;28;20623;-65
2022/06/18 10:40:49;;;;;;;3.25;2.30;;;24.10;58.20;;;;;;5107346;28;20051;-64
2022/06/18 10:43:30;;;;;;;2.90;2.40;;;24.10;58.20;;;;;;5093763;28;20054;-65
2022/06/18 10:46:01;;;;;;;3.13;2.15;;;24.10;58.00;;;;;;5107628;28;20143;-64
2022/06/18 10:48:29;;;;;;;2.70;2.08;;;24.10;58.10;;;;;;5108713;28;20071;-64
2022/06/18 10:50:57;;;;;;;2.78;2.30;;;24.10;58.20;;;;;;5106172;28;20255;-63
2022/06/18 10:53:27;;;;;;;2.40;2.20;;;24.10;58.20;;;;;;5108003;28;20467;-64
2022/06/18 10:56:05;;;;;;;3.45;2.20;;;24.10;58.10;;;;;;5087747;28;20036;-64
2022/06/18 10:58:31;;;;;;;3.10;2.10;;;24.10;58.00;;;;;;5107451;28;20397;-64
2022/06/18 11:01:11;;;;;;;2.78;2.10;;;24.10;58.10;;;;;;5107276;28;20043;-64
2022/06/18 11:03:37;;;;;;;3.22;2.42;;;24.10;58.00;;;;;;5107087;28;20040;-65
2022/06/18 11:06:11;;;;;;;2.72;2.40;;;24.10;58.00;;;;;;5108028;28;20040;-64
2022/06/18 11:08:37;;;;;;;2.15;1.95;;;24.10;58.00;;;;;;5106596;28;20525;-65
2022/06/18 11:11:08;;;;;;;2.55;2.10;;;24.10;58.00;;;;;;5106792;28;20047;-64
2022/06/18 11:13:44;;;;;;;2.95;2.20;;;24.10;58.00;;;;;;5106555;28;20364;-64
2022/06/18 11:16:18;;;;;;;2.88;2.20;;;24.10;58.00;;;;;;5108063;28;20394;-64
2022/06/18 11:19:00;;;;;;;2.22;2.00;;;24.20;58.00;;;;;;5108582;28;20035;-64
2022/06/18 11:21:42;;;;;;;3.70;2.10;;;24.20;58.00;;;;;;5107069;28;20484;-65
2022/06/18 11:24:10;;;;;;;2.50;2.00;;;24.20;58.00;;;;;;5105857;28;20576;-64
2022/06/18 11:26:41;;;;;;;2.75;2.05;;;24.20;58.00;;;;;;5107161;28;20043;-64
2022/06/18 11:29:19;;;;;;;2.80;2.17;;;24.20;58.00;;;;;;5093033;28;20420;-64
2022/06/18 11:31:48;;;;;;;2.08;1.90;;;24.20;58.00;;;;;;5108070;28;20068;-65
2022/06/18 11:34:32;;;;;;;2.42;2.00;;;24.20;58.10;;;;;;5087942;28;20043;-63
2022/06/18 11:36:59;;;;;;;2.10;1.85;;;24.30;57.90;;;;;;5096533;28;20071;-65
2022/06/18 11:39:32;;;;;;;3.42;2.30;;;24.30;58.00;;;;;;5102764;28;20055;-64
2022/06/18 11:42:08;;;;;;;2.70;2.00;;;24.40;57.80;;;;;;5064688;28;20056;-65
2022/06/18 11:44:54;;;;;;;2.80;1.90;;;24.40;57.70;;;;;;5066816;28;20639;-64
2022/06/18 11:47:36;;;;;;;1.95;1.75;;;24.40;57.50;;;;;;5066232;28;20521;-62
2022/06/18 11:50:23;;;;;;;2.20;2.00;;;24.40;57.60;;;;;;5066219;28;20090;-65
2022/06/18 11:52:59;;;;;;;2.80;2.00;;;24.50;57.50;;;;;;5066307;28;20511;-64
2022/06/18 11:55:35;;;;;;;1.70;1.60;;;24.70;57.30;;;;;;5065135;28;20049;-65
2022/06/18 11:58:29;;;;;;;2.58;1.77;;;24.70;56.90;;;;;;5064791;28;20126;-65
2022/06/18 12:01:27;;;;;;;3.22;1.88;;;24.70;56.90;;;;;;5065260;28;20080;-64
2022/06/18 12:04:10;;;;;;;2.25;1.70;;;24.80;56.70;;;;;;5065497;28;20185;-65
2022/06/18 12:06:41;;;;;;;1.90;1.80;;;24.80;56.50;;;;;;5064862;28;20052;-65
2022/06/18 12:09:11;;;;;;;2.83;1.88;;;24.80;56.70;;;;;;5064058;28;20040;-66
2022/06/18 12:12:01;;;;;;;2.33;1.88;;;24.80;56.70;;;;;;5065583;28;20406;-64
2022/06/18 12:14:30;;;;;;;3.00;1.90;;;24.70;56.60;;;;;;5066115;28;20036;-66
2022/06/18 12:16:59;;;;;;;2.13;1.80;;;24.70;56.90;;;;;;5064050;28;20076;-64
2022/06/18 12:19:37;;;;;;;2.70;1.80;;;24.80;56.90;;;;;;5065725;28;20161;-65
2022/06/18 12:22:26;;;;;;;2.25;1.85;;;24.80;56.90;;;;;;5063231;28;20090;-66
2022/06/18 12:25:10;;;;;;;2.05;1.85;;;24.80;56.60;;;;;;5065568;28;20044;-65
2022/06/18 12:27:45;;;;;;;2.50;1.67;;;24.80;56.60;;;;;;5051296;28;20052;-63
2022/06/18 12:30:16;;;;;;;2.28;1.60;;;24.80;56.70;;;;;;5064263;28;20036;-65
2022/06/18 12:32:51;;;;;;;2.83;1.90;;;24.70;56.70;;;;;;5065513;28;21012;-65
2022/06/18 12:35:43;;;;;;;2.25;1.60;;;24.60;56.80;;;;;;5064428;28;20052;-65
2022/06/18 12:38:28;;;;;;;2.10;1.90;;;24.60;56.80;;;;;;5065829;28;20048;-65
2022/06/18 12:41:11;;;;;;;2.03;1.83;;;24.60;56.90;;;;;;5084899;28;20047;-64
2022/06/18 12:43:58;;;;;;;2.70;1.70;;;24.60;56.90;;;;;;5104274;28;20434;-64
2022/06/18 12:46:28;;;;;;;1.80;1.70;;;24.60;56.90;;;;;;5099463;28;20096;-64
2022/06/18 12:49:09;;;;;;;2.97;1.90;;;24.50;57.10;;;;;;5104852;28;20135;-65
2022/06/18 12:51:37;;;;;;;1.90;1.70;;;24.50;57.00;;;;;;5105505;28;20166;-65
2022/06/18 12:54:36;;;;;;;2.10;1.90;;;24.50;57.10;;;;;;5105360;28;20062;-64
2022/06/18 12:57:16;;;;;;;2.10;1.90;;;24.50;57.20;;;;;;5092108;28;20546;-65
2022/06/18 13:00:09;;;;;;;2.10;1.60;;;24.40;57.20;;;;;;5105841;28;20062;-65
2022/06/18 13:02:57;;;;;;;2.67;1.60;;;24.40;57.20;;;;;;5105889;28;20145;-65
2022/06/18 13:05:49;;;;;;;2.38;1.65;;;24.40;57.30;;;;;;5104482;28;20031;-65
2022/06/18 13:08:21;;;;;;;2.00;1.77;;;24.40;57.30;;;;;;5105962;28;20051;-64
2022/06/18 13:11:20;;;;;;;2.15;1.65;;;24.50;57.40;;;;;;5104715;28;20043;-65
2022/06/18 13:14:23;;;;;;;1.80;1.70;;;24.50;57.40;;;;;;5104534;28;20412;-64
2022/06/18 13:16:57;;;;;;;2.00;1.55;;;24.50;57.40;;;;;;5105664;28;20207;-65
2022/06/18 13:20:04;;;;;;;2.03;1.45;;;24.50;57.40;;;;;;5104300;28;20100;-65
2022/06/18 13:22:29;;;;;;;1.60;1.50;;;24.50;57.40;;;;;;5093107;28;20052;-65
2022/06/18 13:28:16;;;;;;;4.60;1.60;;;24.50;57.40;;;;;;5071339;28;20128;-65
2022/06/18 13:31:00;;;;;;;5.20;1.90;;;24.50;57.50;;;;;;5104355;28;20502;-64